sensor_id;sensor_type;location;lat;lon;timestamp;pressure;altitude;pressure_sealevel;temperature;humidity
54600;BME280;40500;51.084;16.958;2023-05-01T00:00:42;100897.52;;;4.27;100.00
54600;BME280;40500;51.084;16.958;2023-05-01T00:03:13;100894.11;;;4.23;100.00
54600;BME280;40500;51.084;16.958;2023-05-01T00:05:44;100899.52;;;4.24;100.00
54600;BME280;40500;51.084;16.958;2023-05-01T00:08:14;100895.91;;;4.26;100.00
54600;BME280;40500;51.084;16.958;2023-05-01T00:10:45;100891.60;;;4.26;100.00
54600;BME280;40500;51.084;16.958;2023-05-01T00:13:16;100888.44;;;4.24;100.00
54600;BME280;40500;51.084;16.958;2023-05-01T00:15:50;100890.86;;;4.24;100.00
54600;BME280;40500;51.084;16.958;2023-05-01T00:18:22;100888.79;;;4.25;100.00
54600;BME280;40500;51.084;16.958;2023-05-01T00:20:52;100887.18;;;4.22;100.00
54600;BME280;40500;51.084;16.958;2023-05-01T00:23:23;100888.52;;;4.19;100.00
54600;BME280;40500;51.084;16.958;2023-05-01T00:25:53;100884.95;;;4.13;100.00
54600;BME280;40500;51.084;16.958;2023-05-01T00:28:24;100887.96;;;4.07;100.00
54600;BME280;40500;51.084;16.958;2023-05-01T00:30:54;100885.60;;;4.02;100.00
54600;BME280;40500;51.084;16.958;2023-05-01T00:33:26;100885.56;;;4.00;100.00
54600;BME280;40500;51.084;16.958;2023-05-01T00:35:56;100891.63;;;4.00;100.00
54600;BME280;40500;51.084;16.958;2023-05-01T00:38:26;100887.10;;;3.99;100.00
54600;BME280;40500;51.084;16.958;2023-05-01T00:40:57;100884.17;;;3.90;100.00
54600;BME280;40500;51.084;16.958;2023-05-01T00:43:28;100883.89;;;3.85;100.00
54600;BME280;40500;51.084;16.958;2023-05-01T00:45:58;100882.59;;;3.80;100.00
54600;BME280;40500;51.084;16.958;2023-05-01T00:48:29;100884.14;;;3.80;100.00
54600;BME280;40500;51.084;16.958;2023-05-01T00:51:00;100876.34;;;3.79;100.00
54600;BME280;40500;51.084;16.958;2023-05-01T00:53:34;100873.19;;;3.77;100.00
54600;BME280;40500;51.084;16.958;2023-05-01T00:56:06;100872.32;;;3.78;100.00
54600;BME280;40500;51.084;16.958;2023-05-01T00:58:38;100871.11;;;3.77;100.00
54600;BME280;40500;51.084;16.958;2023-05-01T01:01:09;100869.01;;;3.76;100.00
54600;BME280;40500;51.084;16.958;2023-05-01T01:03:40;100868.27;;;3.74;100.00
54600;BME280;40500;51.084;16.958;2023-05-01T01:06:16;100865.48;;;3.73;100.00
54600;BME280;40500;51.084;16.958;2023-05-01T01:08:59;100865.80;;;3.72;100.00
54600;BME280;40500;51.084;16.958;2023-05-01T01:11:42;100867.49;;;3.70;100.00
54600;BME280;40500;51.084;16.958;2023-05-01T01:14:18;100861.90;;;3.67;100.00
54600;BME280;40500;51.084;16.958;2023-05-01T01:17:01;100863.64;;;3.67;100.00
54600;BME280;40500;51.084;16.958;2023-05-01T01:22:48;100862.60;;;3.67;100.00
54600;BME280;40500;51.084;16.958;2023-05-01T01:25:52;100860.15;;;3.66;100.00
54600;BME280;40500;51.084;16.958;2023-05-01T01:28:39;100857.73;;;3.66;100.00
54600;BME280;40500;51.084;16.958;2023-05-01T01:31:20;100853.42;;;3.67;100.00
54600;BME280;40500;51.084;16.958;2023-05-01T01:34:02;100851.00;;;3.68;100.00
54600;BME280;40500;51.084;16.958;2023-05-01T01:36:38;100852.66;;;3.64;100.00
54600;BME280;40500;51.084;16.958;2023-05-01T01:39:21;100850.48;;;3.59;100.00
54600;BME280;40500;51.084;16.958;2023-05-01T01:41:55;100852.47;;;3.54;100.00
54600;BME280;40500;51.084;16.958;2023-05-01T01:44:32;100850.23;;;3.54;100.00
54600;BME280;40500;51.084;16.958;2023-05-01T01:47:07;100848.48;;;3.54;100.00
54600;BME280;40500;51.084;16.958;2023-05-01T01:49:39;100848.49;;;3.54;100.00
54600;BME280;40500;51.084;16.958;2023-05-01T01:52:13;100851.23;;;3.53;100.00
54600;BME280;40500;51.084;16.958;2023-05-01T01:54:49;100850.27;;;3.48;100.00
54600;BME280;40500;51.084;16.958;2023-05-01T01:57:21;100844.60;;;3.33;100.00
54600;BME280;40500;51.084;16.958;2023-05-01T01:59:55;100848.83;;;3.20;100.00
54600;BME280;40500;51.084;16.958;2023-05-01T02:02:27;100849.55;;;3.14;100.00
54600;BME280;40500;51.084;16.958;2023-05-01T02:04:59;100844.13;;;3.02;100.00
54600;BME280;40500;51.084;16.958;2023-05-01T02:07:31;100841.73;;;2.88;100.00
54600;BME280;40500;51.084;16.958;2023-05-01T02:10:05;100844.83;;;2.80;100.00
54600;BME280;40500;51.084;16.958;2023-05-01T02:12:36;100846.64;;;2.76;100.00
54600;BME280;40500;51.084;16.958;2023-05-01T02:15:10;100839.96;;;2.72;100.00
54600;BME280;40500;51.084;16.958;2023-05-01T02:17:41;100838.89;;;2.70;100.00
54600;BME280;40500;51.084;16.958;2023-05-01T02:20:13;100835.60;;;2.70;100.00
54600;BME280;40500;51.084;16.958;2023-05-01T02:22:45;100839.61;;;2.71;100.00
54600;BME280;40500;51.084;16.958;2023-05-01T02:25:16;100834.52;;;2.74;100.00
54600;BME280;40500;51.084;16.958;2023-05-01T02:27:49;100831.94;;;2.75;100.00
54600;BME280;40500;51.084;16.958;2023-05-01T02:30:22;100830.83;;;2.72;100.00
54600;BME280;40500;51.084;16.958;2023-05-01T02:32:52;100829.05;;;2.70;100.00
54600;BME280;40500;51.084;16.958;2023-05-01T02:35:23;100826.44;;;2.70;100.00
54600;BME280;40500;51.084;16.958;2023-05-01T02:37:54;100825.55;;;2.69;100.00
54600;BME280;40500;51.084;16.958;2023-05-01T02:40:25;100826.89;;;2.66;100.00
54600;BME280;40500;51.084;16.958;2023-05-01T02:42:59;100826.34;;;2.65;100.00
54600;BME280;40500;51.084;16.958;2023-05-01T02:45:32;100824.84;;;2.67;100.00
54600;BME280;40500;51.084;16.958;2023-05-01T02:48:08;100822.96;;;2.69;100.00
54600;BME280;40500;51.084;16.958;2023-05-01T02:50:40;100821.55;;;2.67;100.00
54600;BME280;40500;51.084;16.958;2023-05-01T02:53:12;100819.91;;;2.63;100.00
54600;BME280;40500;51.084;16.958;2023-05-01T02:55:49;100824.80;;;2.58;100.00
54600;BME280;40500;51.084;16.958;2023-05-01T02:58:20;100823.05;;;2.50;100.00
54600;BME280;40500;51.084;16.958;2023-05-01T03:00:51;100820.88;;;2.46;100.00
54600;BME280;40500;51.084;16.958;2023-05-01T03:03:22;100819.51;;;2.39;100.00
54600;BME280;40500;51.084;16.958;2023-05-01T03:05:54;100816.71;;;2.30;100.00
54600;BME280;40500;51.084;16.958;2023-05-01T03:08:25;100816.16;;;2.22;100.00
54600;BME280;40500;51.084;16.958;2023-05-01T03:10:56;100821.36;;;2.16;100.00
54600;BME280;40500;51.084;16.958;2023-05-01T03:13:26;100820.57;;;2.12;100.00
54600;BME280;40500;51.084;16.958;2023-05-01T03:15:56;100819.75;;;2.14;100.00
54600;BME280;40500;51.084;16.958;2023-05-01T03:18:27;100816.48;;;2.15;100.00
54600;BME280;40500;51.084;16.958;2023-05-01T03:20:57;100818.19;;;2.13;100.00
54600;BME280;40500;51.084;16.958;2023-05-01T03:23:28;100816.76;;;2.11;100.00
54600;BME280;40500;51.084;16.958;2023-05-01T03:25:58;100812.72;;;2.09;100.00
54600;BME280;40500;51.084;16.958;2023-05-01T03:28:29;100814.81;;;2.10;100.00
54600;BME280;40500;51.084;16.958;2023-05-01T03:30:59;100815.35;;;2.10;100.00
54600;BME280;40500;51.084;16.958;2023-05-01T03:33:30;100813.30;;;2.11;100.00
54600;BME280;40500;51.084;16.958;2023-05-01T03:36:02;100816.05;;;2.11;100.00
54600;BME280;40500;51.084;16.958;2023-05-01T03:38:34;100814.38;;;2.13;100.00
54600;BME280;40500;51.084;16.958;2023-05-01T03:41:10;100811.85;;;2.15;100.00
54600;BME280;40500;51.084;16.958;2023-05-01T03:43:59;100813.09;;;2.17;100.00
54600;BME280;40500;51.084;16.958;2023-05-01T03:46:55;100818.55;;;2.21;100.00
54600;BME280;40500;51.084;16.958;2023-05-01T03:49:29;100812.41;;;2.25;100.00
54600;BME280;40500;51.084;16.958;2023-05-01T03:51:59;100807.23;;;2.24;100.00
54600;BME280;40500;51.084;16.958;2023-05-01T03:54:30;100808.29;;;2.25;100.00
54600;BME280;40500;51.084;16.958;2023-05-01T03:57:04;100807.98;;;2.27;100.00
54600;BME280;40500;51.084;16.958;2023-05-01T03:59:34;100807.36;;;2.30;100.00
54600;BME280;40500;51.084;16.958;2023-05-01T04:02:06;100806.64;;;2.35;100.00
54600;BME280;40500;51.084;16.958;2023-05-01T04:04:37;100804.72;;;2.43;100.00
54600;BME280;40500;51.084;16.958;2023-05-01T04:07:07;100803.02;;;2.51;100.00
54600;BME280;40500;51.084;16.958;2023-05-01T04:09:38;100796.48;;;2.59;100.00
54600;BME280;40500;51.084;16.958;2023-05-01T04:12:09;100797.07;;;2.71;100.00
54600;BME280;40500;51.084;16.958;2023-05-01T04:14:39;100796.93;;;2.80;100.00
54600;BME280;40500;51.084;16.958;2023-05-01T04:17:12;100791.09;;;2.90;100.00
54600;BME280;40500;51.084;16.958;2023-05-01T04:19:43;100790.94;;;2.99;100.00
54600;BME280;40500;51.084;16.958;2023-05-01T04:22:13;100787.34;;;3.09;100.00
54600;BME280;40500;51.084;16.958;2023-05-01T04:24:44;100791.78;;;3.23;100.00
54600;BME280;40500;51.084;16.958;2023-05-01T04:27:15;100789.04;;;3.42;100.00
54600;BME280;40500;51.084;16.958;2023-05-01T04:29:46;100787.92;;;3.56;100.00
54600;BME280;40500;51.084;16.958;2023-05-01T04:32:16;100794.56;;;3.69;100.00
54600;BME280;40500;51.084;16.958;2023-05-01T04:34:47;100792.71;;;3.81;100.00
54600;BME280;40500;51.084;16.958;2023-05-01T04:37:18;100789.04;;;3.89;100.00
54600;BME280;40500;51.084;16.958;2023-05-01T04:39:48;100784.62;;;3.94;100.00
54600;BME280;40500;51.084;16.958;2023-05-01T04:42:19;100788.05;;;4.03;100.00
54600;BME280;40500;51.084;16.958;2023-05-01T04:44:50;100789.76;;;4.11;100.00
54600;BME280;40500;51.084;16.958;2023-05-01T04:47:21;100792.34;;;4.20;100.00
54600;BME280;40500;51.084;16.958;2023-05-01T04:49:51;100787.32;;;4.31;100.00
54600;BME280;40500;51.084;16.958;2023-05-01T04:52:23;100793.92;;;4.43;100.00
54600;BME280;40500;51.084;16.958;2023-05-01T04:54:57;100791.50;;;4.55;100.00
54600;BME280;40500;51.084;16.958;2023-05-01T04:57:29;100787.67;;;4.67;100.00
54600;BME280;40500;51.084;16.958;2023-05-01T05:00:00;100790.30;;;4.81;100.00
54600;BME280;40500;51.084;16.958;2023-05-01T05:02:33;100791.54;;;4.96;100.00
54600;BME280;40500;51.084;16.958;2023-05-01T05:05:05;100789.79;;;5.08;100.00
54600;BME280;40500;51.084;16.958;2023-05-01T05:07:36;100793.95;;;5.22;100.00
54600;BME280;40500;51.084;16.958;2023-05-01T05:10:33;100792.06;;;5.38;100.00
54600;BME280;40500;51.084;16.958;2023-05-01T05:13:26;100789.81;;;5.54;100.00
54600;BME280;40500;51.084;16.958;2023-05-01T05:16:02;100781.80;;;5.69;100.00
54600;BME280;40500;51.084;16.958;2023-05-01T05:18:33;100779.67;;;5.83;100.00
54600;BME280;40500;51.084;16.958;2023-05-01T05:21:05;100773.41;;;5.98;100.00
54600;BME280;40500;51.084;16.958;2023-05-01T05:23:37;100771.96;;;6.12;100.00
54600;BME280;40500;51.084;16.958;2023-05-01T05:26:07;100771.02;;;6.24;100.00
54600;BME280;40500;51.084;16.958;2023-05-01T05:28:38;100763.80;;;6.35;100.00
54600;BME280;40500;51.084;16.958;2023-05-01T05:31:09;100764.59;;;6.48;100.00
54600;BME280;40500;51.084;16.958;2023-05-01T05:33:39;100763.60;;;6.60;100.00
54600;BME280;40500;51.084;16.958;2023-05-01T05:36:10;100763.86;;;6.72;100.00
54600;BME280;40500;51.084;16.958;2023-05-01T05:38:42;100760.62;;;6.86;100.00
54600;BME280;40500;51.084;16.958;2023-05-01T05:41:15;100763.48;;;7.00;100.00
54600;BME280;40500;51.084;16.958;2023-05-01T05:43:46;100759.17;;;7.11;100.00
54600;BME280;40500;51.084;16.958;2023-05-01T05:46:16;100759.23;;;7.24;100.00
54600;BME280;40500;51.084;16.958;2023-05-01T05:48:47;100757.52;;;7.40;100.00
54600;BME280;40500;51.084;16.958;2023-05-01T05:51:18;100760.88;;;7.55;100.00
54600;BME280;40500;51.084;16.958;2023-05-01T05:53:48;100759.35;;;7.77;100.00
54600;BME280;40500;51.084;16.958;2023-05-01T05:56:19;100759.02;;;7.96;100.00
54600;BME280;40500;51.084;16.958;2023-05-01T05:58:49;100758.32;;;8.06;100.00
54600;BME280;40500;51.084;16.958;2023-05-01T06:01:21;100757.45;;;8.15;100.00
54600;BME280;40500;51.084;16.958;2023-05-01T06:03:51;100756.93;;;8.27;100.00
54600;BME280;40500;51.084;16.958;2023-05-01T06:06:24;100762.51;;;8.41;100.00
54600;BME280;40500;51.084;16.958;2023-05-01T06:08:56;100757.10;;;8.51;100.00
54600;BME280;40500;51.084;16.958;2023-05-01T06:11:26;100755.50;;;8.64;100.00
54600;BME280;40500;51.084;16.958;2023-05-01T06:13:57;100758.45;;;8.76;100.00
54600;BME280;40500;51.084;16.958;2023-05-01T06:16:28;100757.18;;;8.89;100.00
54600;BME280;40500;51.084;16.958;2023-05-01T06:18:59;100752.94;;;9.01;100.00
54600;BME280;40500;51.084;16.958;2023-05-01T06:21:31;100750.27;;;9.13;100.00
54600;BME280;40500;51.084;16.958;2023-05-01T06:24:01;100749.17;;;9.24;100.00
54600;BME280;40500;51.084;16.958;2023-05-01T06:26:42;100753.86;;;9.30;100.00
54600;BME280;40500;51.084;16.958;2023-05-01T06:29:12;100745.77;;;9.40;100.00
54600;BME280;40500;51.084;16.958;2023-05-01T06:31:43;100744.66;;;9.50;100.00
54600;BME280;40500;51.084;16.958;2023-05-01T06:34:14;100743.53;;;9.63;100.00
54600;BME280;40500;51.084;16.958;2023-05-01T06:36:52;100740.48;;;9.77;100.00
54600;BME280;40500;51.084;16.958;2023-05-01T06:39:23;100739.55;;;9.84;100.00
54600;BME280;40500;51.084;16.958;2023-05-01T06:41:54;100736.34;;;9.91;100.00
54600;BME280;40500;51.084;16.958;2023-05-01T06:44:32;100739.08;;;9.99;100.00
54600;BME280;40500;51.084;16.958;2023-05-01T06:47:02;100732.70;;;10.07;100.00
54600;BME280;40500;51.084;16.958;2023-05-01T06:49:34;100732.97;;;10.16;100.00
54600;BME280;40500;51.084;16.958;2023-05-01T06:52:05;100730.65;;;10.22;100.00
54600;BME280;40500;51.084;16.958;2023-05-01T06:54:35;100731.11;;;10.32;100.00
54600;BME280;40500;51.084;16.958;2023-05-01T06:57:06;100734.17;;;10.42;100.00
54600;BME280;40500;51.084;16.958;2023-05-01T06:59:36;100730.95;;;10.48;100.00
54600;BME280;40500;51.084;16.958;2023-05-01T07:02:07;100730.89;;;10.55;100.00
54600;BME280;40500;51.084;16.958;2023-05-01T07:04:37;100730.45;;;10.63;100.00
54600;BME280;40500;51.084;16.958;2023-05-01T07:07:08;100729.16;;;10.68;100.00
54600;BME280;40500;51.084;16.958;2023-05-01T07:09:38;100722.67;;;10.68;100.00
54600;BME280;40500;51.084;16.958;2023-05-01T07:12:09;100714.94;;;10.71;100.00
54600;BME280;40500;51.084;16.958;2023-05-01T07:14:40;100718.73;;;10.77;100.00
54600;BME280;40500;51.084;16.958;2023-05-01T07:17:10;100718.34;;;10.80;100.00
54600;BME280;40500;51.084;16.958;2023-05-01T07:19:41;100716.36;;;10.84;100.00
54600;BME280;40500;51.084;16.958;2023-05-01T07:22:11;100709.43;;;10.93;100.00
54600;BME280;40500;51.084;16.958;2023-05-01T07:24:41;100708.79;;;11.02;100.00
54600;BME280;40500;51.084;16.958;2023-05-01T07:27:12;100704.64;;;11.12;100.00
54600;BME280;40500;51.084;16.958;2023-05-01T07:29:43;100707.83;;;11.22;100.00
54600;BME280;40500;51.084;16.958;2023-05-01T07:32:13;100702.30;;;11.29;100.00
54600;BME280;40500;51.084;16.958;2023-05-01T07:34:44;100704.31;;;11.35;100.00
54600;BME280;40500;51.084;16.958;2023-05-01T07:37:14;100704.91;;;11.42;100.00
54600;BME280;40500;51.084;16.958;2023-05-01T07:39:45;100701.13;;;11.50;100.00
54600;BME280;40500;51.084;16.958;2023-05-01T07:42:15;100703.43;;;11.60;100.00
54600;BME280;40500;51.084;16.958;2023-05-01T07:44:45;100700.46;;;11.70;100.00
54600;BME280;40500;51.084;16.958;2023-05-01T07:47:16;100701.73;;;11.78;100.00
54600;BME280;40500;51.084;16.958;2023-05-01T07:49:46;100700.77;;;11.84;100.00
54600;BME280;40500;51.084;16.958;2023-05-01T07:52:17;100700.52;;;11.90;100.00
54600;BME280;40500;51.084;16.958;2023-05-01T07:54:51;100691.44;;;11.98;100.00
54600;BME280;40500;51.084;16.958;2023-05-01T07:57:21;100693.44;;;12.04;100.00
54600;BME280;40500;51.084;16.958;2023-05-01T07:59:55;100691.80;;;12.08;100.00
54600;BME280;40500;51.084;16.958;2023-05-01T08:02:26;100689.77;;;12.13;100.00
54600;BME280;40500;51.084;16.958;2023-05-01T08:04:57;100687.78;;;12.17;100.00
54600;BME280;40500;51.084;16.958;2023-05-01T08:07:27;100691.40;;;12.20;100.00
54600;BME280;40500;51.084;16.958;2023-05-01T08:09:57;100691.52;;;12.23;100.00
54600;BME280;40500;51.084;16.958;2023-05-01T08:12:29;100687.86;;;12.32;100.00
54600;BME280;40500;51.084;16.958;2023-05-01T08:15:00;100688.08;;;12.39;100.00
54600;BME280;40500;51.084;16.958;2023-05-01T08:17:30;100685.58;;;12.42;100.00
54600;BME280;40500;51.084;16.958;2023-05-01T08:20:02;100682.80;;;12.49;100.00
54600;BME280;40500;51.084;16.958;2023-05-01T08:22:32;100676.23;;;12.53;100.00
54600;BME280;40500;51.084;16.958;2023-05-01T08:25:03;100676.66;;;12.57;100.00
54600;BME280;40500;51.084;16.958;2023-05-01T08:27:34;100674.96;;;12.63;99.11
54600;BME280;40500;51.084;16.958;2023-05-01T08:30:06;100672.23;;;12.68;98.74
54600;BME280;40500;51.084;16.958;2023-05-01T08:32:36;100676.20;;;12.72;100.00
54600;BME280;40500;51.084;16.958;2023-05-01T08:35:08;100671.91;;;12.75;99.13
54600;BME280;40500;51.084;16.958;2023-05-01T08:37:38;100672.37;;;12.78;100.00
54600;BME280;40500;51.084;16.958;2023-05-01T08:40:10;100669.05;;;12.86;100.00
54600;BME280;40500;51.084;16.958;2023-05-01T08:42:41;100664.82;;;12.95;100.00
54600;BME280;40500;51.084;16.958;2023-05-01T08:45:12;100664.48;;;13.02;100.00
54600;BME280;40500;51.084;16.958;2023-05-01T08:47:44;100662.81;;;13.06;100.00
54600;BME280;40500;51.084;16.958;2023-05-01T08:50:16;100657.62;;;13.11;100.00
54600;BME280;40500;51.084;16.958;2023-05-01T08:52:47;100651.32;;;13.17;100.00
54600;BME280;40500;51.084;16.958;2023-05-01T08:55:21;100648.87;;;13.24;100.00
54600;BME280;40500;51.084;16.958;2023-05-01T08:57:52;100641.91;;;13.29;100.00
54600;BME280;40500;51.084;16.958;2023-05-01T09:00:25;100643.98;;;13.32;100.00
54600;BME280;40500;51.084;16.958;2023-05-01T09:02:56;100637.89;;;13.36;99.68
54600;BME280;40500;51.084;16.958;2023-05-01T09:05:31;100635.50;;;13.41;99.97
54600;BME280;40500;51.084;16.958;2023-05-01T09:08:02;100630.73;;;13.50;100.00
54600;BME280;40500;51.084;16.958;2023-05-01T09:10:33;100628.55;;;13.59;100.00
54600;BME280;40500;51.084;16.958;2023-05-01T09:13:09;100624.30;;;13.67;100.00
54600;BME280;40500;51.084;16.958;2023-05-01T09:15:40;100624.15;;;13.73;100.00
54600;BME280;40500;51.084;16.958;2023-05-01T09:18:11;100621.60;;;13.76;100.00
54600;BME280;40500;51.084;16.958;2023-05-01T09:20:42;100621.17;;;13.79;100.00
54600;BME280;40500;51.084;16.958;2023-05-01T09:23:13;100616.63;;;13.78;100.00
54600;BME280;40500;51.084;16.958;2023-05-01T09:25:44;100613.05;;;13.80;100.00
54600;BME280;40500;51.084;16.958;2023-05-01T09:28:15;100616.10;;;13.85;100.00
54600;BME280;40500;51.084;16.958;2023-05-01T09:30:46;100614.84;;;13.93;100.00
54600;BME280;40500;51.084;16.958;2023-05-01T09:33:16;100609.52;;;13.95;97.59
54600;BME280;40500;51.084;16.958;2023-05-01T09:35:51;100607.13;;;13.98;96.89
54600;BME280;40500;51.084;16.958;2023-05-01T09:38:24;100607.77;;;14.01;93.78
54600;BME280;40500;51.084;16.958;2023-05-01T09:40:56;100606.00;;;14.01;95.52
54600;BME280;40500;51.084;16.958;2023-05-01T09:43:32;100605.52;;;14.06;95.83
54600;BME280;40500;51.084;16.958;2023-05-01T09:46:04;100609.13;;;14.09;95.36
54600;BME280;40500;51.084;16.958;2023-05-01T09:48:38;100604.05;;;14.14;94.76
54600;BME280;40500;51.084;16.958;2023-05-01T09:51:22;100592.14;;;14.18;94.27
54600;BME280;40500;51.084;16.958;2023-05-01T09:53:55;100591.60;;;14.25;95.10
54600;BME280;40500;51.084;16.958;2023-05-01T09:56:26;100594.83;;;14.35;94.10
54600;BME280;40500;51.084;16.958;2023-05-01T09:59:13;100594.14;;;14.41;93.51
54600;BME280;40500;51.084;16.958;2023-05-01T10:01:45;100588.70;;;14.46;93.50
54600;BME280;40500;51.084;16.958;2023-05-01T10:04:16;100587.63;;;14.53;93.10
54600;BME280;40500;51.084;16.958;2023-05-01T10:06:58;100579.05;;;14.64;91.55
54600;BME280;40500;51.084;16.958;2023-05-01T10:09:29;100572.27;;;14.73;93.43
54600;BME280;40500;51.084;16.958;2023-05-01T10:12:00;100572.67;;;14.77;94.49
54600;BME280;40500;51.084;16.958;2023-05-01T10:14:31;100570.27;;;14.80;92.42
54600;BME280;40500;51.084;16.958;2023-05-01T10:17:17;100563.01;;;14.82;88.14
54600;BME280;40500;51.084;16.958;2023-05-01T10:19:48;100561.71;;;14.84;85.76
54600;BME280;40500;51.084;16.958;2023-05-01T10:22:19;100550.27;;;14.89;86.60
54600;BME280;40500;51.084;16.958;2023-05-01T10:24:50;100552.70;;;14.96;88.36
54600;BME280;40500;51.084;16.958;2023-05-01T10:27:21;100547.84;;;15.04;89.63
54600;BME280;40500;51.084;16.958;2023-05-01T10:29:54;100541.01;;;15.14;89.51
54600;BME280;40500;51.084;16.958;2023-05-01T10:32:25;100539.52;;;15.22;89.03
54600;BME280;40500;51.084;16.958;2023-05-01T10:34:59;100539.65;;;15.29;88.98
54600;BME280;40500;51.084;16.958;2023-05-01T10:37:36;100533.73;;;15.36;91.38
54600;BME280;40500;51.084;16.958;2023-05-01T10:43:17;100532.36;;;15.51;85.84
54600;BME280;40500;51.084;16.958;2023-05-01T10:45:48;100522.03;;;15.59;84.37
54600;BME280;40500;51.084;16.958;2023-05-01T10:51:25;100522.73;;;15.75;82.34
54600;BME280;40500;51.084;16.958;2023-05-01T10:54:24;100515.69;;;15.80;83.14
54600;BME280;40500;51.084;16.958;2023-05-01T10:56:56;100512.52;;;15.89;83.27
54600;BME280;40500;51.084;16.958;2023-05-01T10:59:28;100508.94;;;15.96;82.93
54600;BME280;40500;51.084;16.958;2023-05-01T11:02:24;100503.56;;;16.02;82.57
54600;BME280;40500;51.084;16.958;2023-05-01T11:04:55;100500.74;;;16.12;82.34
54600;BME280;40500;51.084;16.958;2023-05-01T11:07:27;100495.15;;;16.15;81.54
54600;BME280;40500;51.084;16.958;2023-05-01T11:09:59;100493.97;;;16.18;79.74
54600;BME280;40500;51.084;16.958;2023-05-01T11:12:52;100491.89;;;16.26;78.49
54600;BME280;40500;51.084;16.958;2023-05-01T11:15:31;100488.06;;;16.34;77.75
54600;BME280;40500;51.084;16.958;2023-05-01T11:18:02;100482.27;;;16.42;79.08
54600;BME280;40500;51.084;16.958;2023-05-01T11:20:50;100482.55;;;16.58;78.22
54600;BME280;40500;51.084;16.958;2023-05-01T11:23:22;100483.38;;;16.68;76.14
54600;BME280;40500;51.084;16.958;2023-05-01T11:26:03;100480.55;;;16.77;73.14
54600;BME280;40500;51.084;16.958;2023-05-01T11:28:34;100472.73;;;16.83;71.29
54600;BME280;40500;51.084;16.958;2023-05-01T11:31:07;100459.46;;;16.92;74.04
54600;BME280;40500;51.084;16.958;2023-05-01T11:33:38;100451.59;;;17.02;73.33
54600;BME280;40500;51.084;16.958;2023-05-01T11:36:09;100448.77;;;17.19;69.38
54600;BME280;40500;51.084;16.958;2023-05-01T11:38:49;100442.79;;;17.31;67.17
54600;BME280;40500;51.084;16.958;2023-05-01T11:41:21;100441.14;;;17.40;66.31
54600;BME280;40500;51.084;16.958;2023-05-01T11:43:53;100434.23;;;17.52;67.81
54600;BME280;40500;51.084;16.958;2023-05-01T11:46:28;100434.52;;;17.70;66.52
54600;BME280;40500;51.084;16.958;2023-05-01T11:49:00;100426.14;;;17.83;63.43
54600;BME280;40500;51.084;16.958;2023-05-01T11:51:31;100431.11;;;17.95;61.99
54600;BME280;40500;51.084;16.958;2023-05-01T11:54:02;100425.73;;;18.08;62.42
54600;BME280;40500;51.084;16.958;2023-05-01T11:56:34;100419.86;;;18.19;62.07
54600;BME280;40500;51.084;16.958;2023-05-01T11:59:13;100427.81;;;18.32;60.38
54600;BME280;40500;51.084;16.958;2023-05-01T12:01:45;100418.73;;;18.35;58.47
54600;BME280;40500;51.084;16.958;2023-05-01T12:04:24;100413.32;;;18.45;59.16
54600;BME280;40500;51.084;16.958;2023-05-01T12:07:00;100414.23;;;18.74;61.26
54600;BME280;40500;51.084;16.958;2023-05-01T12:09:31;100403.77;;;19.02;61.24
54600;BME280;40500;51.084;16.958;2023-05-01T12:12:02;100405.83;;;19.65;60.31
54600;BME280;40500;51.084;16.958;2023-05-01T12:14:34;100397.58;;;20.93;54.94
54600;BME280;40500;51.084;16.958;2023-05-01T12:17:06;100391.94;;;22.72;49.76
54600;BME280;40500;51.084;16.958;2023-05-01T12:19:46;100376.30;;;24.99;46.08
54600;BME280;40500;51.084;16.958;2023-05-01T12:22:21;100365.07;;;27.33;42.74
54600;BME280;40500;51.084;16.958;2023-05-01T12:24:52;100364.16;;;29.03;38.70
54600;BME280;40500;51.084;16.958;2023-05-01T12:27:23;100362.91;;;30.18;32.26
54600;BME280;40500;51.084;16.958;2023-05-01T12:29:53;100356.30;;;31.30;29.98
54600;BME280;40500;51.084;16.958;2023-05-01T12:32:31;100345.21;;;32.25;24.95
54600;BME280;40500;51.084;16.958;2023-05-01T12:35:13;100338.66;;;33.27;26.70
54600;BME280;40500;51.084;16.958;2023-05-01T12:37:43;100332.90;;;34.17;22.92
54600;BME280;40500;51.084;16.958;2023-05-01T12:40:15;100323.17;;;34.93;24.56
54600;BME280;40500;51.084;16.958;2023-05-01T12:42:54;100318.27;;;36.18;23.62
54600;BME280;40500;51.084;16.958;2023-05-01T12:45:26;100313.99;;;36.94;22.02
54600;BME280;40500;51.084;16.958;2023-05-01T12:47:57;100310.88;;;37.80;23.23
54600;BME280;40500;51.084;16.958;2023-05-01T12:50:27;100308.10;;;38.33;21.05
54600;BME280;40500;51.084;16.958;2023-05-01T12:53:02;100300.52;;;38.16;20.56
54600;BME280;40500;51.084;16.958;2023-05-01T12:55:43;100287.52;;;38.04;19.35
54600;BME280;40500;51.084;16.958;2023-05-01T12:58:15;100280.17;;;38.71;20.32
54600;BME280;40500;51.084;16.958;2023-05-01T13:00:48;100275.83;;;39.45;20.83
54600;BME280;40500;51.084;16.958;2023-05-01T13:03:23;100275.96;;;40.34;20.52
54600;BME280;40500;51.084;16.958;2023-05-01T13:05:56;100268.16;;;40.43;18.88
54600;BME280;40500;51.084;16.958;2023-05-01T13:08:29;100263.96;;;40.64;18.71
54600;BME280;40500;51.084;16.958;2023-05-01T13:11:08;100266.77;;;40.77;17.41
54600;BME280;40500;51.084;16.958;2023-05-01T13:13:40;100258.64;;;40.99;19.10
54600;BME280;40500;51.084;16.958;2023-05-01T13:16:12;100251.97;;;41.91;18.47